Portada
METAR-TAF:

METAR-TAF

Aeroports :

Tulcea, Romania

latitud: 45-11N, longitud: 028-49E, altitud: 4 m

Observació

L'informe es va fer fa 28 minuts, a les 14:30 UTC
Vent 15 kt del Sud-Est
Temperatura 30°C
Humitat 40%
Pressió 1017 hPa
Visibilitat 10 km o més
Escasses núvols a una alçada de 5500 ft, Cumulonimbus.

METAR: LRTC 211430Z 13015KT 9999 FEW055CB 30/15 Q1017

Hora: 17:58 (14:58 UTC)

Pronòstic

L'informe es va fer fa 58 minuts, a les 14:00 UTC
Pronòstic vàlid del 21 a les 15 UTC al 21 a les 24 UTC
Vent 10 kt del Sud/Sud-Est
Visibilitat 10 km o més
Escasses núvols a una alçada de 5000 ft, Cumulonimbus.
Evolucionant progressivament
l' 21 a les 15 UTC al 21 a les 17 UTC

TAF: LRTC 211400Z 2115/2124 16010KT 9999 FEW050CB BECMG 2115/2117 NSC

Observacions i pronòstics meteorològics de més de 4000 aeroports (METAR i TAF).

Les estacions disponibles són els punts grocs i vermells al mapa.

Posi el ratolí al punt desitjat per veure el nom de l'estació.

Feu clic per veure les observacions i els pronòstics meteorològics.

Per canviar el mapa: feu clic els botons verds amb una creu de color negre per apropar; al botó verd amb un guió per allunyar la imatge; o en les fletxes verdes per a mapes adjacents.


METAR-TAF: